Time;durP1;ratioP1;P1;durP2;ratioP2;P2;SDS_P1;SDS_P2;PMS_P1;PMS_P2;Temp;Humidity;BMP_temperature;BMP_pressure;BME280_temperature;BME280_humidity;BME280_pressure;Samples;Min_cycle;Max_cycle;Signal;HPM_P1;HPM_P2
2023/09/11 00:00:18;;;;;;;0.00;0.00;;;;;;;19.15;100.00;96593.25;5107509;27;20047;-79
2023/09/11 00:03:04;;;;;;;0.00;0.00;;;;;;;19.03;100.00;96584.78;5110054;27;20607;-79
2023/09/11 00:05:50;;;;;;;0.10;0.05;;;;;;;18.86;100.00;96581.84;5111712;27;20039;-79
2023/09/11 00:08:39;;;;;;;0.00;0.00;;;;;;;18.78;100.00;96580.63;5095948;27;20039;-79
2023/09/11 00:11:25;;;;;;;0.00;0.00;;;;;;;18.74;100.00;96571.47;5111520;27;20757;-79
2023/09/11 00:14:11;;;;;;;0.00;0.00;;;;;;;18.61;100.00;96575.72;5109856;27;20599;-78
2023/09/11 00:16:56;;;;;;;0.00;0.00;;;;;;;18.71;100.00;96563.94;5111035;27;20051;-78
2023/09/11 00:19:42;;;;;;;0.00;0.00;;;;;;;18.76;100.00;96573.91;5096269;27;20158;-80
2023/09/11 00:22:28;;;;;;;0.00;0.00;;;;;;;18.86;100.00;96573.72;5112232;27;20042;-79
2023/09/11 00:25:14;;;;;;;0.00;0.00;;;;;;;18.89;100.00;96568.47;5111896;27;20184;-79
2023/09/11 00:28:00;;;;;;;0.00;0.00;;;;;;;18.67;100.00;96568.31;5107866;27;20324;-79
2023/09/11 00:30:46;;;;;;;0.00;0.00;;;;;;;18.47;100.00;96564.03;5092018;27;20708;-79
2023/09/11 00:33:31;;;;;;;0.00;0.00;;;;;;;18.61;100.00;96561.38;5111255;27;20064;-79
2023/09/11 00:36:18;;;;;;;0.00;0.00;;;;;;;18.56;100.00;96562.25;5106350;27;20042;-80
2023/09/11 00:39:03;;;;;;;0.00;0.00;;;;;;;18.55;100.00;96552.53;5110467;27;20042;-79
2023/09/11 00:41:49;;;;;;;0.00;0.00;;;;;;;18.59;100.00;96553.53;5108395;27;20335;-79
2023/09/11 00:44:35;;;;;;;0.00;0.00;;;;;;;18.57;100.00;96552.22;5109426;27;20047;-79
2023/09/11 00:47:21;;;;;;;0.00;0.00;;;;;;;18.35;100.00;96550.94;5097161;27;20114;-80
2023/09/11 00:50:10;;;;;;;0.00;0.00;;;;;;;18.29;100.00;96545.94;5096831;27;20323;-79
2023/09/11 00:52:57;;;;;;;0.07;0.07;;;;;;;18.42;100.00;96555.97;5109579;27;20051;-80
2023/09/11 00:55:45;;;;;;;0.00;0.00;;;;;;;18.51;100.00;96559.63;5110099;27;20512;-80
2023/09/11 00:58:31;;;;;;;0.00;0.00;;;;;;;18.36;100.00;96552.56;5109506;27;20522;-80
2023/09/11 01:01:19;;;;;;;0.00;0.00;;;;;;;18.50;100.00;96549.09;5109033;27;20093;-80
2023/09/11 01:04:05;;;;;;;0.00;0.00;;;;;;;18.55;100.00;96551.72;5096624;27;20086;-80
2023/09/11 01:06:51;;;;;;;0.00;0.00;;;;;;;18.64;100.00;96550.72;5104723;27;20031;-79
2023/09/11 01:09:37;;;;;;;0.00;0.00;;;;;;;18.68;100.00;96547.44;5105861;27;20147;-79
2023/09/11 01:12:23;;;;;;;0.00;0.00;;;;;;;18.70;100.00;96540.66;5105831;27;20031;-79
2023/09/11 01:15:10;;;;;;;0.00;0.00;;;;;;;18.61;100.00;96534.28;5105449;27;20035;-79
2023/09/11 01:18:44;;;;;;;0.00;0.00;;;;;;;18.52;100.00;96531.44;5092350;27;20043;-79
2023/09/11 01:21:52;;;;;;;0.00;0.00;;;;;;;18.40;100.00;96528.41;5105902;27;20046;-79
2023/09/11 01:24:38;;;;;;;0.00;0.00;;;;;;;18.19;100.00;96537.94;5106807;27;20043;-79
2023/09/11 01:27:36;;;;;;;0.00;0.00;;;;;;;18.05;100.00;96541.41;5108585;28;20138;-79
2023/09/11 01:30:22;;;;;;;0.00;0.00;;;;;;;17.98;100.00;96537.47;5102598;28;20062;-80
2023/09/11 01:33:08;;;;;;;0.03;0.03;;;;;;;18.01;100.00;96532.25;5090076;28;20046;-79
2023/09/11 01:35:54;;;;;;;0.00;0.00;;;;;;;18.03;100.00;96534.66;5105117;28;20039;-78
2023/09/11 01:38:40;;;;;;;0.00;0.00;;;;;;;18.02;100.00;96528.44;5106103;28;20568;-79
2023/09/11 01:41:34;;;;;;;0.00;0.00;;;;;;;18.03;100.00;96529.25;5106820;28;20035;-78
2023/09/11 01:44:23;;;;;;;0.00;0.00;;;;;;;17.98;100.00;96526.63;5086235;28;20468;-79
2023/09/11 01:47:12;;;;;;;0.00;0.00;;;;;;;18.02;100.00;96531.16;5105083;28;20370;-79
2023/09/11 01:50:00;;;;;;;0.00;0.00;;;;;;;17.98;100.00;96521.22;5107780;28;20039;-79
2023/09/11 01:52:51;;;;;;;0.00;0.00;;;;;;;17.92;100.00;96525.09;5105590;28;20812;-79
2023/09/11 01:55:37;;;;;;;0.00;0.00;;;;;;;17.93;100.00;96524.00;5087869;28;20491;-79
2023/09/11 01:58:24;;;;;;;0.00;0.00;;;;;;;17.90;100.00;96524.56;5088519;28;20031;-79
2023/09/11 02:01:09;;;;;;;0.00;0.00;;;;;;;17.90;100.00;96528.09;5092395;28;20046;-79
2023/09/11 02:03:55;;;;;;;0.00;0.00;;;;;;;17.91;100.00;96526.19;5105552;28;20055;-78
2023/09/11 02:06:41;;;;;;;0.00;0.00;;;;;;;17.90;100.00;96524.56;5106554;28;20058;-78
2023/09/11 02:09:27;;;;;;;0.00;0.00;;;;;;;17.96;100.00;96524.19;5105677;28;20517;-78
2023/09/11 02:12:16;;;;;;;0.00;0.00;;;;;;;17.86;100.00;96523.56;5095036;28;20556;-79
2023/09/11 02:15:02;;;;;;;0.00;0.00;;;;;;;17.84;100.00;96526.56;5084842;28;20066;-79
2023/09/11 02:17:48;;;;;;;0.00;0.00;;;;;;;17.71;100.00;96528.09;5093787;28;20039;-79
2023/09/11 02:20:34;;;;;;;0.00;0.00;;;;;;;17.54;100.00;96525.06;5107557;28;20047;-79
2023/09/11 02:23:20;;;;;;;0.00;0.00;;;;;;;17.53;100.00;96532.38;5086648;28;20138;-79
2023/09/11 02:26:06;;;;;;;0.00;0.00;;;;;;;17.52;100.00;96524.56;5108732;27;20161;-78
2023/09/11 02:28:52;;;;;;;0.00;0.00;;;;;;;17.48;100.00;96532.44;5094985;27;20047;-79
2023/09/11 02:31:38;;;;;;;0.00;0.00;;;;;;;17.51;100.00;96521.03;5106952;27;20048;-79
2023/09/11 02:34:24;;;;;;;0.00;0.00;;;;;;;17.52;100.00;96525.34;5107960;27;20035;-78
2023/09/11 02:37:09;;;;;;;0.00;0.00;;;;;;;17.50;100.00;96526.72;5095179;27;20374;-80
2023/09/11 02:39:55;;;;;;;0.00;0.00;;;;;;;17.44;100.00;96523.28;5096929;27;20042;-79
2023/09/11 02:42:41;;;;;;;0.00;0.00;;;;;;;17.32;100.00;96516.69;5108151;27;20066;-79
2023/09/11 02:45:27;;;;;;;0.00;0.00;;;;;;;17.30;100.00;96527.00;5097207;27;20054;-79
2023/09/11 02:48:13;;;;;;;0.08;0.08;;;;;;;17.32;100.00;96519.38;5092621;27;20035;-79
2023/09/11 02:50:59;;;;;;;0.00;0.00;;;;;;;17.23;100.00;96517.34;5093807;27;20043;-79
2023/09/11 02:53:45;;;;;;;0.00;0.00;;;;;;;17.10;100.00;96523.44;5089877;27;20556;-79
2023/09/11 02:56:31;;;;;;;0.00;0.00;;;;;;;17.23;100.00;96519.22;5096977;27;20050;-79
2023/09/11 02:59:20;;;;;;;0.00;0.00;;;;;;;17.24;100.00;96512.72;5091876;27;20915;-79
2023/09/11 03:02:06;;;;;;;0.00;0.00;;;;;;;17.25;100.00;96514.34;5108720;27;20053;-79
2023/09/11 03:04:52;;;;;;;0.05;0.05;;;;;;;17.15;100.00;96509.06;5107445;27;20047;-79
2023/09/11 03:07:37;;;;;;;0.10;0.10;;;;;;;17.05;100.00;96515.41;5092880;27;20077;-77
2023/09/11 03:10:23;;;;;;;0.00;0.00;;;;;;;17.03;100.00;96509.44;5095472;27;20078;-77
2023/09/11 03:13:09;;;;;;;0.03;0.03;;;;;;;16.94;100.00;96509.28;5107395;27;20043;-77
2023/09/11 03:16:05;;;;;;;0.00;0.00;;;;;;;16.83;100.00;96507.78;5098262;27;20423;-77
2023/09/11 03:18:52;;;;;;;0.00;0.00;;;;;;;16.75;100.00;96507.63;5099107;27;20223;-77
2023/09/11 03:21:38;;;;;;;0.00;0.00;;;;;;;16.84;100.00;96508.59;5096768;27;20045;-77
2023/09/11 03:24:24;;;;;;;0.00;0.00;;;;;;;16.83;100.00;96507.78;5108275;27;20061;-77
2023/09/11 03:27:09;;;;;;;0.00;0.00;;;;;;;16.90;100.00;96502.06;5094591;27;20096;-77
2023/09/11 03:29:56;;;;;;;0.08;0.08;;;;;;;16.91;100.00;96503.66;5094895;27;20153;-77
2023/09/11 03:32:41;;;;;;;0.00;0.00;;;;;;;16.92;100.00;96497.97;5099981;27;20881;-77
2023/09/11 03:35:27;;;;;;;0.00;0.00;;;;;;;16.93;100.00;96496.88;5111617;27;20366;-77
2023/09/11 03:38:14;;;;;;;0.00;0.00;;;;;;;16.86;100.00;96501.81;5107612;27;20039;-79
2023/09/11 03:41:03;;;;;;;0.10;0.10;;;;;;;16.88;100.00;96491.50;5107752;27;20389;-80
2023/09/11 03:43:49;;;;;;;0.00;0.00;;;;;;;16.84;100.00;96492.38;5106466;27;20046;-77
2023/09/11 03:46:35;;;;;;;0.00;0.00;;;;;;;16.77;100.00;96490.03;5101779;27;20039;-76
2023/09/11 03:49:21;;;;;;;0.00;0.00;;;;;;;16.72;100.00;96484.66;5094449;27;20493;-77
2023/09/11 03:52:07;;;;;;;0.00;0.00;;;;;;;16.67;100.00;96484.72;5088792;27;20425;-77
2023/09/11 03:54:53;;;;;;;0.05;0.05;;;;;;;16.69;100.00;96480.66;5078373;27;20072;-77
2023/09/11 03:57:41;;;;;;;0.10;0.10;;;;;;;16.66;100.00;96481.19;5092937;27;20050;-77
2023/09/11 04:00:27;;;;;;;0.00;0.00;;;;;;;16.56;100.00;96478.59;5093338;27;20035;-79
2023/09/11 04:03:13;;;;;;;0.03;0.00;;;;;;;16.66;100.00;96475.00;5107915;27;20051;-79
2023/09/11 04:05:59;;;;;;;0.00;0.00;;;;;;;16.69;100.00;96483.34;5107476;27;20159;-79
2023/09/11 04:08:45;;;;;;;0.08;0.00;;;;;;;16.71;100.00;96483.06;5110911;27;20752;-79
2023/09/11 04:11:31;;;;;;;0.00;0.00;;;;;;;16.71;100.00;96478.47;5110027;27;20045;-78
2023/09/11 04:14:17;;;;;;;0.00;0.00;;;;;;;16.59;100.00;96474.53;5087547;27;20069;-78
2023/09/11 04:17:03;;;;;;;0.00;0.00;;;;;;;16.56;100.00;96485.88;5106659;27;20153;-79
2023/09/11 04:19:49;;;;;;;0.05;0.05;;;;;;;16.55;100.00;96473.47;5107594;27;20039;-78
2023/09/11 04:22:35;;;;;;;0.00;0.00;;;;;;;16.61;100.00;96475.03;5101395;27;20505;-78
2023/09/11 04:25:20;;;;;;;0.00;0.00;;;;;;;16.64;100.00;96483.38;5108338;27;20049;-79
2023/09/11 04:28:06;;;;;;;0.00;0.00;;;;;;;16.73;100.00;96485.47;5108218;27;20413;-78
2023/09/11 04:30:52;;;;;;;0.00;0.00;;;;;;;16.65;100.00;96482.31;5109097;27;20077;-78
2023/09/11 04:33:39;;;;;;;0.00;0.00;;;;;;;16.71;100.00;96481.16;5094174;27;20397;-78
2023/09/11 04:36:25;;;;;;;0.00;0.00;;;;;;;16.71;100.00;96489.25;5095444;27;20042;-78
2023/09/11 04:39:13;;;;;;;0.00;0.00;;;;;;;16.69;100.00;96480.66;5107429;27;20054;-78
2023/09/11 04:42:00;;;;;;;0.05;0.05;;;;;;;16.68;100.00;96478.22;5101513;27;20043;-78
2023/09/11 04:44:46;;;;;;;0.00;0.00;;;;;;;16.72;100.00;96473.84;5094181;27;20039;-78
2023/09/11 04:47:32;;;;;;;0.00;0.00;;;;;;;16.58;100.00;96476.44;5107916;27;20530;-77
2023/09/11 04:50:19;;;;;;;0.10;0.10;;;;;;;16.53;100.00;96479.16;5092507;27;20047;-78
2023/09/11 04:53:05;;;;;;;0.00;0.00;;;;;;;16.58;100.00;96481.03;5107702;27;20055;-78
2023/09/11 04:55:51;;;;;;;0.00;0.00;;;;;;;16.54;100.00;96479.97;5090556;27;20489;-77
2023/09/11 04:58:37;;;;;;;0.00;0.00;;;;;;;16.48;100.00;96473.81;5109326;27;20083;-78
2023/09/11 05:01:23;;;;;;;0.00;0.00;;;;;;;16.46;100.00;96470.59;5095468;27;20446;-77
2023/09/11 05:04:10;;;;;;;0.00;0.00;;;;;;;16.47;100.00;96479.50;5086104;27;20047;-77
2023/09/11 05:06:56;;;;;;;0.00;0.00;;;;;;;16.30;100.00;96488.03;5101923;27;20127;-77
2023/09/11 05:09:42;;;;;;;0.00;0.00;;;;;;;16.28;100.00;96474.81;5109154;27;20038;-78
2023/09/11 05:12:28;;;;;;;0.10;0.10;;;;;;;16.21;100.00;96485.16;5092617;28;20065;-78
2023/09/11 05:15:15;;;;;;;0.05;0.05;;;;;;;16.21;100.00;96479.75;5094972;27;20066;-79
2023/09/11 05:18:02;;;;;;;0.05;0.05;;;;;;;16.37;100.00;96489.31;5093754;27;20096;-79
2023/09/11 05:20:50;;;;;;;0.00;0.00;;;;;;;16.39;100.00;96483.63;5093362;27;20082;-79
2023/09/11 05:23:37;;;;;;;0.10;0.00;;;;;;;16.44;100.00;96487.09;5092831;27;20494;-79
2023/09/11 05:26:23;;;;;;;0.00;0.00;;;;;;;16.50;100.00;96484.31;5109886;27;20446;-79
2023/09/11 05:29:09;;;;;;;0.00;0.00;;;;;;;16.52;100.00;96485.66;5107137;28;20055;-79
2023/09/11 05:31:55;;;;;;;0.00;0.00;;;;;;;16.58;100.00;96479.13;5108758;28;20047;-79
2023/09/11 05:34:41;;;;;;;0.00;0.00;;;;;;;16.64;100.00;96475.25;5107244;28;20050;-79
2023/09/11 05:37:27;;;;;;;0.00;0.00;;;;;;;16.68;100.00;96484.41;5094538;28;20051;-80
2023/09/11 05:40:12;;;;;;;0.00;0.00;;;;;;;16.75;100.00;96478.72;5093576;28;20075;-79
2023/09/11 05:42:58;;;;;;;0.00;0.00;;;;;;;16.79;100.00;96484.31;5104925;28;20348;-80
2023/09/11 05:45:46;;;;;;;0.00;0.00;;;;;;;16.86;100.00;96480.19;5108818;28;20046;-80
2023/09/11 05:48:32;;;;;;;0.00;0.00;;;;;;;16.95;100.00;96485.75;5107373;28;20494;-80
2023/09/11 05:51:18;;;;;;;0.00;0.00;;;;;;;17.05;100.00;96487.56;5109281;28;20069;-80
2023/09/11 05:54:04;;;;;;;0.10;0.10;;;;;;;17.11;100.00;96492.59;5086014;28;20283;-80
2023/09/11 05:56:50;;;;;;;0.00;0.00;;;;;;;17.19;100.00;96493.84;5085632;28;20248;-80
2023/09/11 05:59:37;;;;;;;0.00;0.00;;;;;;;17.19;100.00;96491.94;5090157;28;20114;-78
2023/09/11 06:02:23;;;;;;;0.00;0.00;;;;;;;17.23;100.00;96489.50;5070069;28;20039;-78
2023/09/11 06:05:09;;;;;;;0.10;0.10;;;;;;;17.37;100.00;96490.38;5090671;28;20048;-80
2023/09/11 06:07:54;;;;;;;0.00;0.00;;;;;;;17.50;100.00;96486.94;5091886;28;20928;-80
2023/09/11 06:10:40;;;;;;;0.00;0.00;;;;;;;17.58;100.00;96481.97;5076170;28;20213;-78
2023/09/11 06:13:26;;;;;;;0.00;0.00;;;;;;;17.66;100.00;96486.72;5092424;27;20370;-79
2023/09/11 06:16:12;;;;;;;0.00;0.00;;;;;;;17.78;100.00;96490.66;5091920;27;20130;-79
2023/09/11 06:18:59;;;;;;;0.00;0.00;;;;;;;17.88;100.00;96492.38;5090371;28;20051;-79
2023/09/11 06:21:45;;;;;;;0.00;0.00;;;;;;;18.01;100.00;96497.06;5091624;28;20047;-79
2023/09/11 06:24:31;;;;;;;0.00;0.00;;;;;;;18.09;100.00;96496.38;5090229;28;20040;-79
2023/09/11 06:27:17;;;;;;;0.00;0.00;;;;;;;18.19;100.00;96495.41;5090148;27;20896;-80
2023/09/11 06:30:05;;;;;;;0.10;0.10;;;;;;;18.23;100.00;96501.06;5089570;28;20481;-79
2023/09/11 06:32:51;;;;;;;0.08;0.08;;;;;;;18.37;100.00;96493.78;5090335;28;20073;-80
2023/09/11 06:35:37;;;;;;;0.10;0.10;;;;;;;18.46;100.00;96497.41;5090694;28;20130;-79
2023/09/11 06:38:22;;;;;;;0.08;0.08;;;;;;;18.58;100.00;96500.44;5090331;28;20066;-80
2023/09/11 06:41:08;;;;;;;0.00;0.00;;;;;;;18.74;100.00;96505.59;5088652;28;20539;-79
2023/09/11 06:43:54;;;;;;;0.00;0.00;;;;;;;18.84;100.00;96506.25;5090903;27;20460;-80
2023/09/11 06:46:40;;;;;;;0.00;0.00;;;;;;;18.96;100.00;96502.22;5090465;28;20558;-80
2023/09/11 06:49:26;;;;;;;0.00;0.00;;;;;;;19.09;100.00;96504.13;5089827;28;20053;-80
2023/09/11 06:52:12;;;;;;;0.00;0.00;;;;;;;19.20;100.00;96498.19;5095459;27;20047;-80
2023/09/11 06:54:58;;;;;;;0.00;0.00;;;;;;;19.31;100.00;96503.44;5111346;27;20560;-80
2023/09/11 06:57:58;;;;;;;0.00;0.00;;;;;;;19.36;100.00;96490.53;5111407;27;20042;-80
2023/09/11 07:00:44;;;;;;;0.00;0.00;;;;;;;19.52;100.00;96498.34;5096866;27;20512;-80
2023/09/11 07:03:29;;;;;;;0.00;0.00;;;;;;;19.63;100.00;96488.94;5112094;27;20039;-80
2023/09/11 07:06:15;;;;;;;0.00;0.00;;;;;;;19.71;100.00;96496.34;5110526;27;20041;-80
2023/09/11 07:09:04;;;;;;;0.00;0.00;;;;;;;19.80;100.00;96491.78;5109549;27;20058;-80
2023/09/11 07:11:50;;;;;;;0.10;0.10;;;;;;;19.95;100.00;96496.88;5095899;27;20284;-80
2023/09/11 07:14:36;;;;;;;0.08;0.08;;;;;;;20.06;100.00;96494.69;5102306;27;20039;-80
2023/09/11 07:17:23;;;;;;;0.08;0.08;;;;;;;20.13;100.00;96495.06;5097566;27;20039;-80
2023/09/11 07:20:09;;;;;;;0.03;0.03;;;;;;;20.21;100.00;96497.06;5108879;27;20043;-80
2023/09/11 07:22:55;;;;;;;0.10;0.10;;;;;;;20.30;100.00;96497.13;5110380;27;20054;-80
2023/09/11 07:25:40;;;;;;;0.00;0.00;;;;;;;20.44;100.00;96487.00;5111558;27;20043;-80
2023/09/11 07:28:27;;;;;;;0.03;0.03;;;;;;;20.59;100.00;96496.69;5109971;27;20039;-80
2023/09/11 07:31:13;;;;;;;0.00;0.00;;;;;;;20.66;100.00;96488.88;5108531;27;20584;-80
2023/09/11 07:33:59;;;;;;;0.00;0.00;;;;;;;20.70;100.00;96489.88;5093096;27;20054;-81
2023/09/11 07:36:47;;;;;;;0.10;0.10;;;;;;;20.82;100.00;96487.38;5107543;27;20043;-81
2023/09/11 07:39:33;;;;;;;0.10;0.10;;;;;;;20.91;100.00;96478.44;5109265;27;20631;-79
2023/09/11 07:42:19;;;;;;;0.03;0.03;;;;;;;21.07;100.00;96485.06;5108136;27;20993;-79
2023/09/11 07:45:06;;;;;;;0.00;0.00;;;;;;;21.19;100.00;96485.28;5107212;27;20126;-79
2023/09/11 07:47:54;;;;;;;0.00;0.00;;;;;;;21.34;100.00;96484.06;5108514;27;20653;-80
2023/09/11 07:50:40;;;;;;;0.00;0.00;;;;;;;21.41;100.00;96477.03;5109857;27;20039;-79
2023/09/11 07:53:25;;;;;;;0.00;0.00;;;;;;;21.57;100.00;96484.75;5109794;27;20057;-79
2023/09/11 07:56:12;;;;;;;0.10;0.10;;;;;;;21.75;100.00;96478.19;5047794;27;20357;-80
2023/09/11 07:59:00;;;;;;;0.00;0.00;;;;;;;21.91;100.00;96482.03;5107013;27;20509;-80
2023/09/11 08:01:46;;;;;;;0.10;0.10;;;;;;;22.05;100.00;96481.09;5108945;27;20653;-80
2023/09/11 08:04:32;;;;;;;0.10;0.00;;;;;;;22.09;100.00;96482.06;5108629;27;20041;-80
2023/09/11 08:07:18;;;;;;;0.00;0.00;;;;;;;22.18;100.00;96480.16;5108925;27;20039;-80
2023/09/11 08:10:04;;;;;;;0.00;0.00;;;;;;;22.36;100.00;96489.91;5109518;27;20517;-80
2023/09/11 08:12:50;;;;;;;0.00;0.00;;;;;;;22.52;100.00;96482.00;5106968;27;21099;-80
2023/09/11 08:15:36;;;;;;;0.00;0.00;;;;;;;22.71;100.00;96481.63;5107916;27;20047;-81
2023/09/11 08:18:22;;;;;;;0.10;0.10;;;;;;;22.84;100.00;96477.91;5102388;27;20050;-80
2023/09/11 08:21:09;;;;;;;0.00;0.00;;;;;;;22.95;100.00;96479.16;5108830;27;20572;-81
2023/09/11 08:23:58;;;;;;;0.00;0.00;;;;;;;23.10;100.00;96490.66;5107894;27;20046;-80
2023/09/11 08:26:43;;;;;;;0.00;0.00;;;;;;;23.05;100.00;96484.25;5106563;27;20077;-81
2023/09/11 08:29:29;;;;;;;0.10;0.10;;;;;;;23.16;100.00;96484.69;5111354;27;20044;-80
2023/09/11 08:32:15;;;;;;;0.00;0.00;;;;;;;23.30;100.00;96489.91;5115043;27;20035;-80
2023/09/11 08:35:04;;;;;;;0.00;0.00;;;;;;;23.33;100.00;96487.31;5118406;27;20086;-81
2023/09/11 08:37:49;;;;;;;0.03;0.03;;;;;;;23.35;100.00;96487.00;5093249;27;20072;-80
2023/09/11 08:40:35;;;;;;;0.00;0.00;;;;;;;23.38;100.00;96483.63;5113230;27;20052;-80
2023/09/11 08:43:24;;;;;;;0.03;0.03;;;;;;;23.51;100.00;96484.50;5111114;27;20104;-80
2023/09/11 08:46:17;;;;;;;0.00;0.00;;;;;;;23.68;100.00;96491.81;5109863;27;20036;-80
2023/09/11 08:49:07;;;;;;;0.08;0.08;;;;;;;23.82;100.00;96486.91;5105163;27;20042;-80
2023/09/11 08:51:53;;;;;;;0.00;0.00;;;;;;;24.01;100.00;96492.69;5105509;27;20111;-79
2023/09/11 08:54:45;;;;;;;0.00;0.00;;;;;;;24.06;100.00;96478.81;5109746;27;20578;-80
2023/09/11 08:57:33;;;;;;;0.10;0.10;;;;;;;23.99;100.00;96489.50;5099185;27;20035;-80
2023/09/11 09:00:20;;;;;;;0.00;0.00;;;;;;;24.10;100.00;96482.47;5106928;27;20568;-79
2023/09/11 09:03:07;;;;;;;0.00;0.00;;;;;;;24.28;100.00;96479.56;5103345;27;20047;-80
2023/09/11 09:05:56;;;;;;;0.00;0.00;;;;;;;24.41;100.00;96482.06;5093662;27;20077;-80
2023/09/11 09:08:44;;;;;;;0.00;0.00;;;;;;;24.60;100.00;96486.22;5104255;27;20039;-80
2023/09/11 09:11:30;;;;;;;0.00;0.00;;;;;;;24.77;100.00;96477.81;5107289;27;20051;-81
2023/09/11 09:14:19;;;;;;;0.00;0.00;;;;;;;24.92;100.00;96484.59;5105900;27;20083;-80
2023/09/11 09:17:06;;;;;;;0.00;0.00;;;;;;;24.86;100.00;96484.00;5104994;27;20532;-80
2023/09/11 09:19:52;;;;;;;0.10;0.10;;;;;;;24.92;100.00;96481.84;5109399;27;20923;-80
2023/09/11 09:22:59;;;;;;;0.00;0.00;;;;;;;24.84;98.85;96482.75;5104968;27;20135;-80
2023/09/11 09:25:45;;;;;;;0.03;0.03;;;;;;;25.11;100.00;96478.56;5108337;27;20549;-81
2023/09/11 09:28:32;;;;;;;0.00;0.00;;;;;;;25.13;97.52;96473.53;5105130;27;20046;-80
2023/09/11 09:31:27;;;;;;;0.10;0.10;;;;;;;25.18;97.15;96471.38;5104887;28;20639;-80
2023/09/11 09:34:13;;;;;;;0.00;0.00;;;;;;;25.14;99.34;96467.75;5088521;28;20122;-80
2023/09/11 09:37:00;;;;;;;0.10;0.10;;;;;;;25.42;99.02;96470.56;5106993;27;20645;-80
2023/09/11 09:39:50;;;;;;;0.00;0.00;;;;;;;25.66;100.00;96471.69;5094720;27;20091;-81
2023/09/11 09:42:42;;;;;;;0.00;0.00;;;;;;;25.43;93.21;96469.44;5106668;27;20660;-80
2023/09/11 09:45:39;;;;;;;0.05;0.05;;;;;;;25.58;95.73;96469.88;5111043;27;20039;-81
2023/09/11 09:48:28;;;;;;;0.00;0.00;;;;;;;25.84;96.22;96464.84;5106309;27;20093;-80
2023/09/11 09:51:15;;;;;;;0.00;0.00;;;;;;;25.94;99.65;96458.88;5110845;27;20043;-81
2023/09/11 09:54:01;;;;;;;0.00;0.00;;;;;;;25.98;96.28;96467.97;5107589;27;20505;-81
2023/09/11 09:56:47;;;;;;;0.00;0.00;;;;;;;26.15;93.73;96457.84;5095784;27;20125;-81
2023/09/11 09:59:32;;;;;;;0.00;0.00;;;;;;;26.18;91.73;96466.19;5109461;27;20942;-81
2023/09/11 10:02:24;;;;;;;0.00;0.00;;;;;;;26.00;92.37;96457.47;5109184;27;22137;-81
2023/09/11 10:05:10;;;;;;;0.00;0.00;;;;;;;26.25;92.75;96452.69;5109498;27;20039;-80
2023/09/11 10:07:59;;;;;;;0.00;0.00;;;;;;;26.54;93.47;96446.06;5111480;27;20084;-82
2023/09/11 10:10:45;;;;;;;0.00;0.00;;;;;;;26.75;92.34;96451.28;5111991;27;20497;-82
2023/09/11 10:13:32;;;;;;;0.00;0.00;;;;;;;26.84;89.27;96451.13;5111286;27;20039;-82
2023/09/11 10:16:18;;;;;;;0.00;0.00;;;;;;;27.15;87.35;96444.84;5108326;27;20040;-80
2023/09/11 10:19:04;;;;;;;0.00;0.00;;;;;;;27.32;86.17;96446.44;5095664;27;20342;-81
2023/09/11 10:21:50;;;;;;;0.03;0.03;;;;;;;27.20;87.76;96439.09;5111651;27;20112;-81
2023/09/11 10:24:35;;;;;;;0.10;0.10;;;;;;;27.59;84.29;96441.94;5110249;27;20584;-80
2023/09/11 10:27:21;;;;;;;0.00;0.00;;;;;;;27.97;81.77;96439.28;5110422;27;20042;-81
2023/09/11 10:30:10;;;;;;;0.10;0.10;;;;;;;28.71;77.15;96427.31;5108370;27;20257;-82
2023/09/11 10:33:05;;;;;;;0.10;0.10;;;;;;;29.62;75.33;96427.25;5110947;27;20054;-81
2023/09/11 10:35:59;;;;;;;0.10;0.10;;;;;;;30.83;68.18;96424.34;5108599;27;20513;-81
2023/09/11 10:38:46;;;;;;;0.10;0.10;;;;;;;32.88;50.90;96415.56;5108378;27;20872;-80
2023/09/11 10:41:33;;;;;;;0.03;0.03;;;;;;;33.84;48.20;96408.34;5088228;27;20490;-80
2023/09/11 10:44:19;;;;;;;0.10;0.10;;;;;;;35.07;39.44;96410.88;5101925;27;20545;-83
2023/09/11 10:47:05;;;;;;;0.10;0.10;;;;;;;35.26;40.19;96401.22;5106666;27;20050;-81
2023/09/11 10:49:51;;;;;;;0.10;0.10;;;;;;;36.14;35.10;96407.84;5109338;27;20107;-81
2023/09/11 10:52:37;;;;;;;0.10;0.10;;;;;;;36.42;33.57;96403.94;5109660;27;20431;-81
2023/09/11 10:55:24;;;;;;;0.10;0.10;;;;;;;36.50;34.08;96399.03;5109705;27;20120;-81
2023/09/11 10:58:10;;;;;;;0.10;0.10;;;;;;;36.93;31.34;96392.84;5109845;27;20039;-82
2023/09/11 11:00:57;;;;;;;0.10;0.10;;;;;;;37.88;27.83;96387.56;5112022;27;20501;-81
2023/09/11 11:03:43;;;;;;;0.03;0.03;;;;;;;38.64;28.17;96386.78;5107892;27;20116;-81
2023/09/11 11:06:30;;;;;;;0.10;0.10;;;;;;;39.25;27.20;96394.53;5109733;27;20039;-80
2023/09/11 11:09:33;;;;;;;0.10;0.10;;;;;;;39.39;28.60;96394.19;5110597;27;20480;-80
2023/09/11 11:12:32;;;;;;;0.10;0.10;;;;;;;38.90;25.27;96396.94;5108814;27;21876;-81
2023/09/11 11:15:20;;;;;;;0.10;0.10;;;;;;;41.12;23.32;96386.72;5108242;27;20509;-81
2023/09/11 11:18:15;;;;;;;0.10;0.10;;;;;;;41.74;22.55;96406.69;5109854;27;20620;-81
2023/09/11 11:21:07;;;;;;;0.10;0.10;;;;;;;42.62;23.01;96394.66;5109853;27;20043;-81
2023/09/11 11:23:56;;;;;;;0.10;0.10;;;;;;;44.26;22.49;96391.34;5108613;27;20104;-81
2023/09/11 11:26:42;;;;;;;0.10;0.10;;;;;;;42.90;21.99;96401.97;5108127;27;20043;-80
2023/09/11 11:29:28;;;;;;;0.05;0.05;;;;;;;44.36;21.81;96407.00;5107833;27;20516;-81
2023/09/11 11:32:17;;;;;;;0.10;0.10;;;;;;;42.35;22.08;96398.09;5108226;27;20035;-80
2023/09/11 11:35:04;;;;;;;0.03;0.03;;;;;;;41.87;23.16;96405.84;5107313;27;20359;-80
2023/09/11 11:37:52;;;;;;;0.10;0.10;;;;;;;42.28;22.14;96413.19;5108240;27;20389;-82
2023/09/11 11:40:38;;;;;;;0.10;0.10;;;;;;;40.67;23.29;96419.81;5088675;27;20134;-82
2023/09/11 11:43:25;;;;;;;0.10;0.10;;;;;;;41.90;23.40;96404.94;5110949;27;20039;-81
2023/09/11 11:46:12;;;;;;;0.10;0.10;;;;;;;42.47;23.05;96398.00;5110486;27;20155;-80
2023/09/11 11:48:58;;;;;;;0.10;0.10;;;;;;;44.29;21.23;96392.44;5109571;27;20515;-82
2023/09/11 11:51:45;;;;;;;0.10;0.10;;;;;;;43.78;20.13;96402.34;5110352;27;20245;-82
2023/09/11 11:54:33;;;;;;;0.20;0.20;;;;;;;42.52;21.32;96393.81;5108995;27;20629;-83
2023/09/11 11:57:19;;;;;;;0.10;0.10;;;;;;;43.42;21.65;96391.00;5105517;27;20486;-82
2023/09/11 12:00:10;;;;;;;0.10;0.10;;;;;;;42.63;21.21;96387.78;5102828;27;20327;-80
2023/09/11 12:03:03;;;;;;;0.10;0.10;;;;;;;42.62;21.81;96387.00;5107323;27;20047;-80
2023/09/11 12:05:49;;;;;;;0.10;0.10;;;;;;;43.59;21.36;96383.84;5108259;27;20047;-81
2023/09/11 12:08:35;;;;;;;0.10;0.10;;;;;;;44.48;20.25;96379.84;5107705;27;20489;-81
2023/09/11 12:11:21;;;;;;;0.10;0.10;;;;;;;43.46;19.41;96374.75;5095673;27;20035;-82
2023/09/11 12:14:16;;;;;;;0.10;0.10;;;;;;;43.89;20.90;96374.47;5109763;27;20055;-81
2023/09/11 12:17:06;;;;;;;0.10;0.10;;;;;;;44.92;18.98;96376.56;5106096;27;20039;-81
2023/09/11 12:20:08;;;;;;;0.13;0.13;;;;;;;45.79;18.79;96383.09;5091803;27;20835;-82
2023/09/11 12:22:54;;;;;;;0.10;0.10;;;;;;;44.31;20.28;96385.06;5108397;27;20039;-81
2023/09/11 12:25:40;;;;;;;0.10;0.10;;;;;;;44.51;19.50;96383.75;5108302;27;20047;-82
2023/09/11 12:28:26;;;;;;;0.10;0.10;;;;;;;43.83;21.11;96375.59;5110528;27;20400;-81
2023/09/11 12:31:12;;;;;;;0.10;0.10;;;;;;;44.56;21.81;96371.84;5109333;27;20074;-83
2023/09/11 12:33:58;;;;;;;0.17;0.17;;;;;;;43.52;21.75;96364.44;5107809;27;20049;-82
2023/09/11 12:36:44;;;;;;;0.10;0.10;;;;;;;43.06;21.50;96367.19;5108522;27;20051;-83
2023/09/11 12:39:30;;;;;;;0.10;0.10;;;;;;;43.68;21.45;96366.94;5107904;27;20548;-83
2023/09/11 12:42:16;;;;;;;0.20;0.20;;;;;;;42.81;23.02;96363.34;5108954;27;20139;-83
2023/09/11 12:45:03;;;;;;;0.10;0.10;;;;;;;44.69;21.41;96355.50;5108470;27;20390;-83
2023/09/11 12:47:49;;;;;;;0.10;0.10;;;;;;;44.27;21.45;96359.06;5093400;27;20050;-80
2023/09/11 12:50:40;;;;;;;0.10;0.10;;;;;;;44.38;20.67;96353.72;5096155;27;20569;-81
2023/09/11 12:53:28;;;;;;;0.10;0.10;;;;;;;44.95;20.33;96347.41;5107361;27;20140;-82
2023/09/11 12:56:19;;;;;;;0.03;0.03;;;;;;;45.46;19.18;96354.94;5107506;27;20043;-82
2023/09/11 12:59:10;;;;;;;0.10;0.10;;;;;;;46.61;19.10;96345.47;5108657;27;21303;-81